sensor_id;sensor_type;location;lat;lon;timestamp;P1;durP1;ratioP1;P2;durP2;ratioP2
66093;SDS011;52876;49.394;10.892;2023-02-22T00:00:55;41.73;;;30.73;;
66093;SDS011;52876;49.394;10.892;2023-02-22T00:03:22;40.10;;;30.57;;
66093;SDS011;52876;49.394;10.892;2023-02-22T00:05:50;40.47;;;30.80;;
66093;SDS011;52876;49.394;10.892;2023-02-22T00:08:17;38.83;;;28.40;;
66093;SDS011;52876;49.394;10.892;2023-02-22T00:10:46;40.60;;;30.00;;
66093;SDS011;52876;49.394;10.892;2023-02-22T00:13:12;29.73;;;23.70;;
66093;SDS011;52876;49.394;10.892;2023-02-22T00:15:40;31.13;;;24.80;;
66093;SDS011;52876;49.394;10.892;2023-02-22T00:18:07;23.37;;;19.40;;
66093;SDS011;52876;49.394;10.892;2023-02-22T00:20:34;18.30;;;16.50;;
66093;SDS011;52876;49.394;10.892;2023-02-22T00:23:00;17.60;;;15.87;;
66093;SDS011;52876;49.394;10.892;2023-02-22T00:25:30;21.73;;;19.00;;
66093;SDS011;52876;49.394;10.892;2023-02-22T00:27:57;18.97;;;17.00;;
66093;SDS011;52876;49.394;10.892;2023-02-22T00:30:26;16.57;;;14.90;;
66093;SDS011;52876;49.394;10.892;2023-02-22T00:32:53;23.13;;;19.00;;
66093;SDS011;52876;49.394;10.892;2023-02-22T00:35:20;25.00;;;20.60;;
66093;SDS011;52876;49.394;10.892;2023-02-22T00:37:48;22.57;;;18.70;;
66093;SDS011;52876;49.394;10.892;2023-02-22T00:40:15;21.97;;;18.57;;
66093;SDS011;52876;49.394;10.892;2023-02-22T00:42:44;23.43;;;18.97;;
66093;SDS011;52876;49.394;10.892;2023-02-22T00:45:12;20.30;;;16.93;;
66093;SDS011;52876;49.394;10.892;2023-02-22T00:47:40;13.57;;;12.17;;
66093;SDS011;52876;49.394;10.892;2023-02-22T00:50:06;12.30;;;11.20;;
66093;SDS011;52876;49.394;10.892;2023-02-22T00:52:34;17.00;;;14.10;;
66093;SDS011;52876;49.394;10.892;2023-02-22T00:55:00;16.93;;;14.40;;
66093;SDS011;52876;49.394;10.892;2023-02-22T00:57:28;23.30;;;17.60;;
66093;SDS011;52876;49.394;10.892;2023-02-22T00:59:54;22.13;;;18.70;;
66093;SDS011;52876;49.394;10.892;2023-02-22T01:02:22;21.17;;;16.97;;
66093;SDS011;52876;49.394;10.892;2023-02-22T01:04:48;24.33;;;20.03;;
66093;SDS011;52876;49.394;10.892;2023-02-22T01:07:14;20.63;;;17.73;;
66093;SDS011;52876;49.394;10.892;2023-02-22T01:09:40;21.10;;;18.77;;
66093;SDS011;52876;49.394;10.892;2023-02-22T01:12:06;22.77;;;20.33;;
66093;SDS011;52876;49.394;10.892;2023-02-22T01:14:32;20.83;;;18.60;;
66093;SDS011;52876;49.394;10.892;2023-02-22T01:17:02;19.77;;;17.63;;
66093;SDS011;52876;49.394;10.892;2023-02-22T01:19:29;19.83;;;15.97;;
66093;SDS011;52876;49.394;10.892;2023-02-22T01:21:55;17.73;;;15.83;;
66093;SDS011;52876;49.394;10.892;2023-02-22T01:24:21;19.53;;;17.43;;
66093;SDS011;52876;49.394;10.892;2023-02-22T01:26:49;22.73;;;18.03;;
66093;SDS011;52876;49.394;10.892;2023-02-22T01:29:15;19.47;;;16.67;;
66093;SDS011;52876;49.394;10.892;2023-02-22T01:31:49;19.87;;;16.77;;
66093;SDS011;52876;49.394;10.892;2023-02-22T01:34:15;20.97;;;16.47;;
66093;SDS011;52876;49.394;10.892;2023-02-22T01:36:42;26.33;;;19.80;;
66093;SDS011;52876;49.394;10.892;2023-02-22T01:39:08;24.23;;;20.83;;
66093;SDS011;52876;49.394;10.892;2023-02-22T01:41:36;18.57;;;16.57;;
66093;SDS011;52876;49.394;10.892;2023-02-22T01:44:16;21.67;;;17.70;;
66093;SDS011;52876;49.394;10.892;2023-02-22T01:46:42;19.80;;;17.60;;
66093;SDS011;52876;49.394;10.892;2023-02-22T01:49:08;16.63;;;14.83;;
66093;SDS011;52876;49.394;10.892;2023-02-22T01:51:36;18.50;;;16.53;;
66093;SDS011;52876;49.394;10.892;2023-02-22T01:54:05;23.23;;;19.43;;
66093;SDS011;52876;49.394;10.892;2023-02-22T01:56:33;19.80;;;17.70;;
66093;SDS011;52876;49.394;10.892;2023-02-22T01:59:02;30.57;;;23.80;;
66093;SDS011;52876;49.394;10.892;2023-02-22T02:01:29;27.60;;;21.17;;
66093;SDS011;52876;49.394;10.892;2023-02-22T02:03:56;28.60;;;21.83;;
66093;SDS011;52876;49.394;10.892;2023-02-22T02:06:22;21.63;;;19.37;;
66093;SDS011;52876;49.394;10.892;2023-02-22T02:08:50;24.17;;;20.50;;
66093;SDS011;52876;49.394;10.892;2023-02-22T02:11:21;19.13;;;16.30;;
66093;SDS011;52876;49.394;10.892;2023-02-22T02:13:50;20.00;;;17.50;;
66093;SDS011;52876;49.394;10.892;2023-02-22T02:16:16;20.70;;;17.20;;
66093;SDS011;52876;49.394;10.892;2023-02-22T02:18:42;20.23;;;17.13;;
66093;SDS011;52876;49.394;10.892;2023-02-22T02:24:07;20.80;;;18.57;;
66093;SDS011;52876;49.394;10.892;2023-02-22T02:26:43;18.03;;;15.37;;
66093;SDS011;52876;49.394;10.892;2023-02-22T02:32:06;19.13;;;16.33;;
66093;SDS011;52876;49.394;10.892;2023-02-22T02:34:37;17.70;;;14.47;;
66093;SDS011;52876;49.394;10.892;2023-02-22T02:37:08;18.90;;;14.23;;
66093;SDS011;52876;49.394;10.892;2023-02-22T02:39:36;15.03;;;13.57;;
66093;SDS011;52876;49.394;10.892;2023-02-22T02:42:06;22.87;;;17.70;;
66093;SDS011;52876;49.394;10.892;2023-02-22T02:44:35;20.17;;;16.80;;
66093;SDS011;52876;49.394;10.892;2023-02-22T02:47:04;23.80;;;17.37;;
66093;SDS011;52876;49.394;10.892;2023-02-22T02:49:33;21.80;;;17.40;;
66093;SDS011;52876;49.394;10.892;2023-02-22T02:52:04;24.60;;;18.47;;
66093;SDS011;52876;49.394;10.892;2023-02-22T02:54:31;26.27;;;18.37;;
66093;SDS011;52876;49.394;10.892;2023-02-22T02:56:58;21.57;;;17.20;;
66093;SDS011;52876;49.394;10.892;2023-02-22T02:59:25;20.23;;;16.63;;
66093;SDS011;52876;49.394;10.892;2023-02-22T03:01:56;18.10;;;15.70;;
66093;SDS011;52876;49.394;10.892;2023-02-22T03:04:33;21.30;;;17.50;;
66093;SDS011;52876;49.394;10.892;2023-02-22T03:07:09;15.67;;;14.07;;
66093;SDS011;52876;49.394;10.892;2023-02-22T03:09:38;14.57;;;13.03;;
66093;SDS011;52876;49.394;10.892;2023-02-22T03:12:13;14.47;;;12.97;;
66093;SDS011;52876;49.394;10.892;2023-02-22T03:14:45;11.40;;;10.30;;
66093;SDS011;52876;49.394;10.892;2023-02-22T03:17:16;11.43;;;10.30;;
66093;SDS011;52876;49.394;10.892;2023-02-22T03:19:44;12.17;;;11.00;;
66093;SDS011;52876;49.394;10.892;2023-02-22T03:22:13;15.80;;;14.20;;
66093;SDS011;52876;49.394;10.892;2023-02-22T03:24:42;18.40;;;15.33;;
66093;SDS011;52876;49.394;10.892;2023-02-22T03:27:10;17.63;;;15.83;;
66093;SDS011;52876;49.394;10.892;2023-02-22T03:29:40;21.80;;;17.47;;
66093;SDS011;52876;49.394;10.892;2023-02-22T03:32:08;21.33;;;16.57;;
66093;SDS011;52876;49.394;10.892;2023-02-22T03:34:35;20.57;;;16.73;;
66093;SDS011;52876;49.394;10.892;2023-02-22T03:37:07;22.07;;;16.70;;
66093;SDS011;52876;49.394;10.892;2023-02-22T03:39:34;14.30;;;12.40;;
66093;SDS011;52876;49.394;10.892;2023-02-22T03:42:05;18.27;;;14.70;;
66093;SDS011;52876;49.394;10.892;2023-02-22T03:44:32;18.60;;;16.63;;
66093;SDS011;52876;49.394;10.892;2023-02-22T03:47:00;16.87;;;14.17;;
66093;SDS011;52876;49.394;10.892;2023-02-22T03:49:31;14.83;;;13.33;;
66093;SDS011;52876;49.394;10.892;2023-02-22T03:52:01;17.67;;;14.97;;
66093;SDS011;52876;49.394;10.892;2023-02-22T03:54:29;16.10;;;13.80;;
66093;SDS011;52876;49.394;10.892;2023-02-22T03:56:59;13.03;;;11.63;;
66093;SDS011;52876;49.394;10.892;2023-02-22T03:59:27;16.33;;;14.70;;
66093;SDS011;52876;49.394;10.892;2023-02-22T04:01:54;17.23;;;14.40;;
66093;SDS011;52876;49.394;10.892;2023-02-22T04:04:20;14.60;;;13.10;;
66093;SDS011;52876;49.394;10.892;2023-02-22T04:06:48;18.07;;;15.30;;
66093;SDS011;52876;49.394;10.892;2023-02-22T04:09:14;15.47;;;13.53;;
66093;SDS011;52876;49.394;10.892;2023-02-22T04:11:44;17.00;;;14.47;;
66093;SDS011;52876;49.394;10.892;2023-02-22T04:14:10;18.07;;;13.23;;
66093;SDS011;52876;49.394;10.892;2023-02-22T04:16:36;17.30;;;14.20;;
66093;SDS011;52876;49.394;10.892;2023-02-22T04:19:02;18.53;;;14.20;;
66093;SDS011;52876;49.394;10.892;2023-02-22T04:21:28;15.77;;;14.10;;
66093;SDS011;52876;49.394;10.892;2023-02-22T04:23:54;17.40;;;15.07;;
66093;SDS011;52876;49.394;10.892;2023-02-22T04:26:20;17.53;;;14.70;;
66093;SDS011;52876;49.394;10.892;2023-02-22T04:28:50;21.17;;;18.90;;
66093;SDS011;52876;49.394;10.892;2023-02-22T04:31:16;23.83;;;18.30;;
66093;SDS011;52876;49.394;10.892;2023-02-22T04:33:42;18.03;;;14.50;;
66093;SDS011;52876;49.394;10.892;2023-02-22T04:36:10;17.30;;;14.93;;
66093;SDS011;52876;49.394;10.892;2023-02-22T04:38:36;22.10;;;16.37;;
66093;SDS011;52876;49.394;10.892;2023-02-22T04:41:04;17.00;;;14.30;;
66093;SDS011;52876;49.394;10.892;2023-02-22T04:43:30;17.77;;;15.77;;
66093;SDS011;52876;49.394;10.892;2023-02-22T04:45:58;18.90;;;16.90;;
66093;SDS011;52876;49.394;10.892;2023-02-22T04:48:24;18.97;;;17.00;;
66093;SDS011;52876;49.394;10.892;2023-02-22T04:50:50;19.80;;;17.03;;
66093;SDS011;52876;49.394;10.892;2023-02-22T04:53:16;18.67;;;15.67;;
66093;SDS011;52876;49.394;10.892;2023-02-22T04:55:43;20.87;;;16.70;;
66093;SDS011;52876;49.394;10.892;2023-02-22T04:58:09;17.97;;;15.60;;
66093;SDS011;52876;49.394;10.892;2023-02-22T05:00:37;15.03;;;13.43;;
66093;SDS011;52876;49.394;10.892;2023-02-22T05:03:04;16.90;;;15.10;;
66093;SDS011;52876;49.394;10.892;2023-02-22T05:05:30;19.53;;;16.03;;
66093;SDS011;52876;49.394;10.892;2023-02-22T05:07:56;18.77;;;15.50;;
66093;SDS011;52876;49.394;10.892;2023-02-22T05:10:24;18.57;;;15.93;;
66093;SDS011;52876;49.394;10.892;2023-02-22T05:12:50;18.17;;;14.90;;
66093;SDS011;52876;49.394;10.892;2023-02-22T05:15:20;18.43;;;15.30;;
66093;SDS011;52876;49.394;10.892;2023-02-22T05:17:47;14.00;;;12.57;;
66093;SDS011;52876;49.394;10.892;2023-02-22T05:20:17;14.30;;;12.77;;
66093;SDS011;52876;49.394;10.892;2023-02-22T05:22:47;18.23;;;15.27;;
66093;SDS011;52876;49.394;10.892;2023-02-22T05:25:13;22.17;;;17.17;;
66093;SDS011;52876;49.394;10.892;2023-02-22T05:27:41;18.77;;;14.90;;
66093;SDS011;52876;49.394;10.892;2023-02-22T05:30:09;21.03;;;16.70;;
66093;SDS011;52876;49.394;10.892;2023-02-22T05:32:38;18.40;;;13.03;;
66093;SDS011;52876;49.394;10.892;2023-02-22T05:35:04;15.27;;;13.53;;
66093;SDS011;52876;49.394;10.892;2023-02-22T05:37:33;16.90;;;13.40;;
66093;SDS011;52876;49.394;10.892;2023-02-22T05:39:59;22.83;;;16.30;;
66093;SDS011;52876;49.394;10.892;2023-02-22T05:42:27;22.03;;;17.30;;
66093;SDS011;52876;49.394;10.892;2023-02-22T05:44:53;17.23;;;15.27;;
66093;SDS011;52876;49.394;10.892;2023-02-22T05:47:20;21.40;;;17.77;;
66093;SDS011;52876;49.394;10.892;2023-02-22T05:49:46;22.80;;;16.53;;
66093;SDS011;52876;49.394;10.892;2023-02-22T05:52:12;22.70;;;15.60;;
66093;SDS011;52876;49.394;10.892;2023-02-22T05:54:39;46.67;;;19.20;;
66093;SDS011;52876;49.394;10.892;2023-02-22T05:57:05;29.83;;;17.73;;
66093;SDS011;52876;49.394;10.892;2023-02-22T05:59:31;37.63;;;20.43;;
66093;SDS011;52876;49.394;10.892;2023-02-22T06:01:59;17.40;;;13.70;;
66093;SDS011;52876;49.394;10.892;2023-02-22T06:04:25;57.73;;;21.90;;
66093;SDS011;52876;49.394;10.892;2023-02-22T06:06:51;29.93;;;19.27;;
66093;SDS011;52876;49.394;10.892;2023-02-22T06:09:17;20.27;;;16.87;;
66093;SDS011;52876;49.394;10.892;2023-02-22T06:11:46;15.90;;;12.57;;
66093;SDS011;52876;49.394;10.892;2023-02-22T06:14:12;25.70;;;19.50;;
66093;SDS011;52876;49.394;10.892;2023-02-22T06:16:38;35.80;;;22.47;;
66093;SDS011;52876;49.394;10.892;2023-02-22T06:19:04;24.67;;;17.93;;
66093;SDS011;52876;49.394;10.892;2023-02-22T06:21:32;30.83;;;22.93;;
66093;SDS011;52876;49.394;10.892;2023-02-22T06:23:58;37.97;;;22.43;;
66093;SDS011;52876;49.394;10.892;2023-02-22T06:26:24;50.03;;;26.80;;
66093;SDS011;52876;49.394;10.892;2023-02-22T06:28:51;57.87;;;28.93;;
66093;SDS011;52876;49.394;10.892;2023-02-22T06:31:17;53.03;;;28.93;;
66093;SDS011;52876;49.394;10.892;2023-02-22T06:33:43;61.93;;;29.20;;
66093;SDS011;52876;49.394;10.892;2023-02-22T06:36:09;57.00;;;29.07;;
66093;SDS011;52876;49.394;10.892;2023-02-22T06:38:35;70.10;;;30.87;;
66093;SDS011;52876;49.394;10.892;2023-02-22T06:41:01;53.43;;;26.77;;
66093;SDS011;52876;49.394;10.892;2023-02-22T06:43:27;51.93;;;27.93;;
66093;SDS011;52876;49.394;10.892;2023-02-22T06:45:56;71.87;;;32.27;;
66093;SDS011;52876;49.394;10.892;2023-02-22T06:48:22;43.40;;;24.30;;
66093;SDS011;52876;49.394;10.892;2023-02-22T06:50:50;59.97;;;27.73;;
66093;SDS011;52876;49.394;10.892;2023-02-22T06:53:16;51.40;;;26.20;;
66093;SDS011;52876;49.394;10.892;2023-02-22T06:55:43;56.40;;;27.20;;
66093;SDS011;52876;49.394;10.892;2023-02-22T06:58:10;47.73;;;24.93;;
66093;SDS011;52876;49.394;10.892;2023-02-22T07:00:37;64.17;;;29.03;;
66093;SDS011;52876;49.394;10.892;2023-02-22T07:03:06;46.50;;;25.60;;
66093;SDS011;52876;49.394;10.892;2023-02-22T07:05:34;66.77;;;31.40;;
66093;SDS011;52876;49.394;10.892;2023-02-22T07:08:01;48.20;;;26.77;;
66093;SDS011;52876;49.394;10.892;2023-02-22T07:10:30;50.90;;;27.40;;
66093;SDS011;52876;49.394;10.892;2023-02-22T07:12:56;54.77;;;26.27;;
66093;SDS011;52876;49.394;10.892;2023-02-22T07:15:23;49.87;;;26.63;;
66093;SDS011;52876;49.394;10.892;2023-02-22T07:17:49;47.87;;;26.33;;
66093;SDS011;52876;49.394;10.892;2023-02-22T07:20:18;48.53;;;24.73;;
66093;SDS011;52876;49.394;10.892;2023-02-22T07:22:46;41.97;;;23.10;;
66093;SDS011;52876;49.394;10.892;2023-02-22T07:25:13;36.60;;;23.00;;
66093;SDS011;52876;49.394;10.892;2023-02-22T07:27:40;27.87;;;21.40;;
66093;SDS011;52876;49.394;10.892;2023-02-22T07:30:07;28.07;;;21.37;;
66093;SDS011;52876;49.394;10.892;2023-02-22T07:32:40;25.40;;;20.20;;
66093;SDS011;52876;49.394;10.892;2023-02-22T07:35:09;24.10;;;19.50;;
66093;SDS011;52876;49.394;10.892;2023-02-22T07:37:41;25.43;;;19.17;;
66093;SDS011;52876;49.394;10.892;2023-02-22T07:40:07;18.23;;;15.87;;
66093;SDS011;52876;49.394;10.892;2023-02-22T07:42:48;14.60;;;13.10;;
66093;SDS011;52876;49.394;10.892;2023-02-22T07:45:14;15.00;;;13.40;;
66093;SDS011;52876;49.394;10.892;2023-02-22T07:47:42;16.40;;;14.70;;
66093;SDS011;52876;49.394;10.892;2023-02-22T07:50:08;16.30;;;12.70;;
66093;SDS011;52876;49.394;10.892;2023-02-22T07:52:35;15.57;;;13.97;;
66093;SDS011;52876;49.394;10.892;2023-02-22T07:55:03;19.10;;;14.57;;
66093;SDS011;52876;49.394;10.892;2023-02-22T07:57:31;15.47;;;13.90;;
66093;SDS011;52876;49.394;10.892;2023-02-22T07:59:57;19.13;;;15.67;;
66093;SDS011;52876;49.394;10.892;2023-02-22T08:02:23;15.97;;;14.37;;
66093;SDS011;52876;49.394;10.892;2023-02-22T08:04:50;16.50;;;14.77;;
66093;SDS011;52876;49.394;10.892;2023-02-22T08:07:16;16.10;;;13.20;;
66093;SDS011;52876;49.394;10.892;2023-02-22T08:09:42;14.83;;;13.43;;
66093;SDS011;52876;49.394;10.892;2023-02-22T08:12:11;13.17;;;11.20;;
66093;SDS011;52876;49.394;10.892;2023-02-22T08:14:37;14.93;;;13.50;;
66093;SDS011;52876;49.394;10.892;2023-02-22T08:17:03;24.17;;;20.40;;
66093;SDS011;52876;49.394;10.892;2023-02-22T08:19:29;30.10;;;23.63;;
66093;SDS011;52876;49.394;10.892;2023-02-22T08:21:55;27.60;;;23.00;;
66093;SDS011;52876;49.394;10.892;2023-02-22T08:24:21;28.60;;;23.77;;
66093;SDS011;52876;49.394;10.892;2023-02-22T08:26:47;22.63;;;20.13;;
66093;SDS011;52876;49.394;10.892;2023-02-22T08:29:14;23.93;;;20.73;;
66093;SDS011;52876;49.394;10.892;2023-02-22T08:31:40;19.97;;;17.97;;
66093;SDS011;52876;49.394;10.892;2023-02-22T08:34:06;24.20;;;17.93;;
66093;SDS011;52876;49.394;10.892;2023-02-22T08:36:32;17.53;;;15.23;;
66093;SDS011;52876;49.394;10.892;2023-02-22T08:38:58;16.53;;;14.97;;
66093;SDS011;52876;49.394;10.892;2023-02-22T08:41:26;16.23;;;14.53;;
66093;SDS011;52876;49.394;10.892;2023-02-22T08:43:52;15.03;;;13.60;;
66093;SDS011;52876;49.394;10.892;2023-02-22T08:46:21;25.50;;;20.57;;
66093;SDS011;52876;49.394;10.892;2023-02-22T08:48:48;21.37;;;17.93;;
66093;SDS011;52876;49.394;10.892;2023-02-22T08:51:16;16.03;;;14.43;;
66093;SDS011;52876;49.394;10.892;2023-02-22T08:53:42;14.17;;;12.87;;
66093;SDS011;52876;49.394;10.892;2023-02-22T08:56:09;14.73;;;13.27;;
66093;SDS011;52876;49.394;10.892;2023-02-22T08:58:35;18.87;;;16.40;;
66093;SDS011;52876;49.394;10.892;2023-02-22T09:01:02;13.50;;;12.13;;
66093;SDS011;52876;49.394;10.892;2023-02-22T09:03:29;12.00;;;10.90;;
66093;SDS011;52876;49.394;10.892;2023-02-22T09:05:57;12.13;;;10.93;;
66093;SDS011;52876;49.394;10.892;2023-02-22T09:08:23;11.93;;;10.67;;
66093;SDS011;52876;49.394;10.892;2023-02-22T09:10:51;12.20;;;11.07;;
66093;SDS011;52876;49.394;10.892;2023-02-22T09:13:17;11.53;;;10.43;;
66093;SDS011;52876;49.394;10.892;2023-02-22T09:15:45;13.27;;;11.97;;
66093;SDS011;52876;49.394;10.892;2023-02-22T09:18:12;12.23;;;11.03;;
66093;SDS011;52876;49.394;10.892;2023-02-22T09:20:41;17.83;;;15.73;;
66093;SDS011;52876;49.394;10.892;2023-02-22T09:23:07;14.93;;;13.30;;
66093;SDS011;52876;49.394;10.892;2023-02-22T09:25:35;16.13;;;14.43;;
66093;SDS011;52876;49.394;10.892;2023-02-22T09:28:01;15.30;;;13.83;;
66093;SDS011;52876;49.394;10.892;2023-02-22T09:30:30;16.73;;;15.00;;
66093;SDS011;52876;49.394;10.892;2023-02-22T09:32:57;15.23;;;13.70;;
66093;SDS011;52876;49.394;10.892;2023-02-22T09:35:25;15.07;;;13.47;;
66093;SDS011;52876;49.394;10.892;2023-02-22T09:37:53;13.90;;;12.67;;
66093;SDS011;52876;49.394;10.892;2023-02-22T09:40:21;24.83;;;22.40;;
66093;SDS011;52876;49.394;10.892;2023-02-22T09:42:49;13.07;;;11.77;;
66093;SDS011;52876;49.394;10.892;2023-02-22T09:45:19;13.87;;;12.37;;
66093;SDS011;52876;49.394;10.892;2023-02-22T09:47:49;12.90;;;11.37;;
66093;SDS011;52876;49.394;10.892;2023-02-22T09:50:17;13.50;;;12.10;;
66093;SDS011;52876;49.394;10.892;2023-02-22T09:52:50;12.57;;;11.33;;
66093;SDS011;52876;49.394;10.892;2023-02-22T09:55:23;12.63;;;11.43;;
66093;SDS011;52876;49.394;10.892;2023-02-22T09:57:51;14.90;;;11.80;;
66093;SDS011;52876;49.394;10.892;2023-02-22T10:00:19;14.83;;;13.27;;
66093;SDS011;52876;49.394;10.892;2023-02-22T10:02:48;14.80;;;12.73;;
66093;SDS011;52876;49.394;10.892;2023-02-22T10:05:18;13.07;;;11.87;;
66093;SDS011;52876;49.394;10.892;2023-02-22T10:07:50;13.27;;;12.03;;
66093;SDS011;52876;49.394;10.892;2023-02-22T10:10:21;13.33;;;11.93;;
66093;SDS011;52876;49.394;10.892;2023-02-22T10:12:51;12.43;;;11.23;;
66093;SDS011;52876;49.394;10.892;2023-02-22T10:20:55;13.43;;;12.07;;
66093;SDS011;52876;49.394;10.892;2023-02-22T10:23:24;14.20;;;12.07;;
66093;SDS011;52876;49.394;10.892;2023-02-22T10:25:54;12.57;;;11.37;;
66093;SDS011;52876;49.394;10.892;2023-02-22T10:28:22;12.47;;;11.27;;
66093;SDS011;52876;49.394;10.892;2023-02-22T10:30:52;12.67;;;11.47;;
66093;SDS011;52876;49.394;10.892;2023-02-22T10:33:20;14.50;;;13.00;;
66093;SDS011;52876;49.394;10.892;2023-02-22T10:35:46;11.93;;;10.83;;
66093;SDS011;52876;49.394;10.892;2023-02-22T10:38:15;13.03;;;11.73;;
66093;SDS011;52876;49.394;10.892;2023-02-22T10:40:42;12.77;;;11.47;;
66093;SDS011;52876;49.394;10.892;2023-02-22T10:43:11;12.70;;;11.40;;
66093;SDS011;52876;49.394;10.892;2023-02-22T10:45:39;12.47;;;11.27;;
66093;SDS011;52876;49.394;10.892;2023-02-22T10:48:06;12.93;;;11.60;;
66093;SDS011;52876;49.394;10.892;2023-02-22T10:50:33;12.00;;;10.80;;
66093;SDS011;52876;49.394;10.892;2023-02-22T10:53:00;11.83;;;10.73;;
66093;SDS011;52876;49.394;10.892;2023-02-22T10:55:28;11.83;;;9.70;;
66093;SDS011;52876;49.394;10.892;2023-02-22T10:57:58;11.87;;;10.67;;
66093;SDS011;52876;49.394;10.892;2023-02-22T11:00:28;10.20;;;9.20;;
66093;SDS011;52876;49.394;10.892;2023-02-22T11:02:55;11.50;;;10.30;;
66093;SDS011;52876;49.394;10.892;2023-02-22T11:05:26;10.57;;;9.13;;
66093;SDS011;52876;49.394;10.892;2023-02-22T11:07:56;9.37;;;8.50;;
66093;SDS011;52876;49.394;10.892;2023-02-22T11:10:39;10.13;;;9.23;;
66093;SDS011;52876;49.394;10.892;2023-02-22T11:13:15;11.70;;;10.60;;
66093;SDS011;52876;49.394;10.892;2023-02-22T11:15:42;10.50;;;9.33;;
66093;SDS011;52876;49.394;10.892;2023-02-22T11:18:15;8.80;;;8.00;;
66093;SDS011;52876;49.394;10.892;2023-02-22T11:20:44;8.67;;;7.90;;
66093;SDS011;52876;49.394;10.892;2023-02-22T11:23:11;9.00;;;8.20;;
66093;SDS011;52876;49.394;10.892;2023-02-22T11:25:38;8.33;;;7.73;;
66093;SDS011;52876;49.394;10.892;2023-02-22T11:28:05;11.20;;;8.37;;
66093;SDS011;52876;49.394;10.892;2023-02-22T11:30:33;9.27;;;8.40;;
66093;SDS011;52876;49.394;10.892;2023-02-22T11:33:02;12.87;;;11.40;;
66093;SDS011;52876;49.394;10.892;2023-02-22T11:35:33;7.83;;;7.10;;
66093;SDS011;52876;49.394;10.892;2023-02-22T11:38:08;10.50;;;9.10;;
66093;SDS011;52876;49.394;10.892;2023-02-22T11:40:34;9.20;;;8.07;;
66093;SDS011;52876;49.394;10.892;2023-02-22T11:43:05;14.37;;;10.17;;
66093;SDS011;52876;49.394;10.892;2023-02-22T11:45:32;7.80;;;7.10;;
66093;SDS011;52876;49.394;10.892;2023-02-22T11:47:59;13.40;;;10.73;;
66093;SDS011;52876;49.394;10.892;2023-02-22T11:50:28;15.90;;;10.47;;
66093;SDS011;52876;49.394;10.892;2023-02-22T11:52:59;19.60;;;10.73;;
66093;SDS011;52876;49.394;10.892;2023-02-22T11:55:29;16.53;;;9.33;;
66093;SDS011;52876;49.394;10.892;2023-02-22T11:57:59;19.23;;;10.77;;
66093;SDS011;52876;49.394;10.892;2023-02-22T12:00:30;15.23;;;10.30;;
66093;SDS011;52876;49.394;10.892;2023-02-22T12:03:11;14.67;;;9.67;;
66093;SDS011;52876;49.394;10.892;2023-02-22T12:05:46;10.93;;;7.97;;
66093;SDS011;52876;49.394;10.892;2023-02-22T12:08:18;21.63;;;12.60;;
66093;SDS011;52876;49.394;10.892;2023-02-22T12:10:50;13.47;;;9.27;;
66093;SDS011;52876;49.394;10.892;2023-02-22T12:13:24;19.23;;;11.63;;
66093;SDS011;52876;49.394;10.892;2023-02-22T12:15:53;10.97;;;8.77;;
66093;SDS011;52876;49.394;10.892;2023-02-22T12:18:24;10.30;;;8.13;;
66093;SDS011;52876;49.394;10.892;2023-02-22T12:20:57;7.00;;;6.40;;
66093;SDS011;52876;49.394;10.892;2023-02-22T12:23:26;6.90;;;6.23;;
66093;SDS011;52876;49.394;10.892;2023-02-22T12:25:56;20.93;;;10.37;;
66093;SDS011;52876;49.394;10.892;2023-02-22T12:28:25;31.70;;;12.37;;
66093;SDS011;52876;49.394;10.892;2023-02-22T12:30:55;24.57;;;10.40;;
66093;SDS011;52876;49.394;10.892;2023-02-22T12:33:26;31.00;;;11.90;;
66093;SDS011;52876;49.394;10.892;2023-02-22T12:35:55;29.50;;;12.20;;
66093;SDS011;52876;49.394;10.892;2023-02-22T12:38:25;21.37;;;10.40;;
66093;SDS011;52876;49.394;10.892;2023-02-22T12:40:55;24.23;;;11.13;;
66093;SDS011;52876;49.394;10.892;2023-02-22T12:43:24;32.70;;;13.30;;
66093;SDS011;52876;49.394;10.892;2023-02-22T12:45:52;18.97;;;9.67;;
66093;SDS011;52876;49.394;10.892;2023-02-22T12:48:28;21.97;;;10.30;;
66093;SDS011;52876;49.394;10.892;2023-02-22T12:50:57;35.73;;;15.00;;
66093;SDS011;52876;49.394;10.892;2023-02-22T12:53:26;19.97;;;9.50;;
66093;SDS011;52876;49.394;10.892;2023-02-22T12:55:56;21.17;;;9.70;;
66093;SDS011;52876;49.394;10.892;2023-02-22T12:58:23;20.67;;;10.40;;
66093;SDS011;52876;49.394;10.892;2023-02-22T13:00:57;48.90;;;15.53;;
66093;SDS011;52876;49.394;10.892;2023-02-22T13:03:26;56.83;;;17.97;;
66093;SDS011;52876;49.394;10.892;2023-02-22T13:05:54;60.80;;;18.97;;
66093;SDS011;52876;49.394;10.892;2023-02-22T13:08:27;84.33;;;23.00;;
66093;SDS011;52876;49.394;10.892;2023-02-22T13:10:59;43.00;;;14.33;;
66093;SDS011;52876;49.394;10.892;2023-02-22T13:13:29;37.70;;;13.00;;
66093;SDS011;52876;49.394;10.892;2023-02-22T13:16:00;31.40;;;11.03;;
66093;SDS011;52876;49.394;10.892;2023-02-22T13:18:30;29.87;;;11.07;;
66093;SDS011;52876;49.394;10.892;2023-02-22T13:21:01;43.73;;;14.90;;
66093;SDS011;52876;49.394;10.892;2023-02-22T13:23:36;26.90;;;10.60;;
66093;SDS011;52876;49.394;10.892;2023-02-22T13:26:07;51.90;;;15.67;;
66093;SDS011;52876;49.394;10.892;2023-02-22T13:28:37;41.50;;;13.47;;
66093;SDS011;52876;49.394;10.892;2023-02-22T13:31:10;57.17;;;16.27;;
66093;SDS011;52876;49.394;10.892;2023-02-22T13:33:44;52.33;;;16.87;;
66093;SDS011;52876;49.394;10.892;2023-02-22T13:36:19;160.53;;;42.90;;
66093;SDS011;52876;49.394;10.892;2023-02-22T13:39:00;39.43;;;13.60;;
66093;SDS011;52876;49.394;10.892;2023-02-22T13:41:37;38.53;;;12.87;;
66093;SDS011;52876;49.394;10.892;2023-02-22T13:44:11;46.47;;;15.50;;
66093;SDS011;52876;49.394;10.892;2023-02-22T13:49:28;123.43;;;35.33;;
66093;SDS011;52876;49.394;10.892;2023-02-22T13:51:58;37.93;;;12.97;;
66093;SDS011;52876;49.394;10.892;2023-02-22T13:54:27;76.43;;;20.93;;
66093;SDS011;52876;49.394;10.892;2023-02-22T13:56:57;36.90;;;13.30;;
66093;SDS011;52876;49.394;10.892;2023-02-22T13:59:26;30.83;;;14.03;;
66093;SDS011;52876;49.394;10.892;2023-02-22T14:01:54;13.20;;;8.20;;
66093;SDS011;52876;49.394;10.892;2023-02-22T14:04:23;19.43;;;12.33;;
66093;SDS011;52876;49.394;10.892;2023-02-22T14:06:57;10.63;;;6.77;;
66093;SDS011;52876;49.394;10.892;2023-02-22T14:12:06;12.23;;;8.13;;
66093;SDS011;52876;49.394;10.892;2023-02-22T14:14:32;13.47;;;8.33;;
66093;SDS011;52876;49.394;10.892;2023-02-22T14:19:58;20.57;;;9.37;;
66093;SDS011;52876;49.394;10.892;2023-02-22T14:22:24;33.57;;;13.73;;
66093;SDS011;52876;49.394;10.892;2023-02-22T14:24:52;10.57;;;8.67;;
66093;SDS011;52876;49.394;10.892;2023-02-22T14:27:21;8.90;;;8.00;;
66093;SDS011;52876;49.394;10.892;2023-02-22T14:29:50;9.07;;;7.83;;
66093;SDS011;52876;49.394;10.892;2023-02-22T14:32:16;9.63;;;8.67;;
66093;SDS011;52876;49.394;10.892;2023-02-22T14:34:43;5.93;;;5.43;;
66093;SDS011;52876;49.394;10.892;2023-02-22T14:37:12;6.70;;;6.03;;